Time;durP1;ratioP1;P1;durP2;ratioP2;P2;SDS_P1;SDS_P2;PMS_P1;PMS_P2;Temp;Humidity;BMP_temperature;BMP_pressure;BME280_temperature;BME280_humidity;BME280_pressure;Samples;Min_cycle;Max_cycle;Signal;HPM_P1;HPM_P2
2021/03/17 00:00:20;;;;;;;3.90;2.30;;;5.30;99.90;;;;;;5113776;28;20114;-64
2021/03/17 00:02:46;;;;;;;2.20;1.65;;;5.40;99.90;;;;;;5113692;28;20514;-64
2021/03/17 00:05:13;;;;;;;2.42;1.75;;;5.40;99.90;;;;;;5113880;28;20027;-64
2021/03/17 00:07:39;;;;;;;2.58;1.92;;;5.30;99.90;;;;;;5095371;28;20032;-64
2021/03/17 00:10:05;;;;;;;2.17;1.50;;;5.30;99.90;;;;;;5113828;28;20015;-65
2021/03/17 00:12:31;;;;;;;3.10;1.80;;;5.30;99.90;;;;;;5095615;28;20020;-64
2021/03/17 00:14:56;;;;;;;2.53;1.88;;;5.40;99.90;;;;;;5113675;28;20080;-65
2021/03/17 00:17:22;;;;;;;3.23;1.80;;;5.30;99.90;;;;;;5113650;28;20031;-64
2021/03/17 00:19:49;;;;;;;2.08;1.88;;;5.20;99.90;;;;;;5095375;28;20369;-65
2021/03/17 00:22:15;;;;;;;3.60;1.83;;;5.30;99.90;;;;;;5113861;28;20107;-64
2021/03/17 00:24:40;;;;;;;2.17;1.65;;;5.20;99.90;;;;;;5113865;28;20036;-64
2021/03/17 00:27:07;;;;;;;2.77;2.30;;;5.30;99.90;;;;;;5113838;28;20043;-64
2021/03/17 00:29:32;;;;;;;2.90;1.70;;;5.10;99.90;;;;;;5113561;28;20265;-64
2021/03/17 00:31:58;;;;;;;2.65;2.20;;;5.10;99.90;;;;;;5113778;28;20154;-64
2021/03/17 00:34:24;;;;;;;2.77;1.90;;;5.20;99.90;;;;;;5113739;28;20372;-64
2021/03/17 00:36:49;;;;;;;2.27;2.07;;;5.30;99.90;;;;;;5095570;28;20024;-63
2021/03/17 00:39:15;;;;;;;2.40;1.90;;;5.30;99.90;;;;;;5113494;28;20032;-64
2021/03/17 00:41:40;;;;;;;3.95;2.10;;;5.20;99.90;;;;;;5113452;28;20099;-64
2021/03/17 00:44:06;;;;;;;2.50;2.10;;;5.10;99.90;;;;;;5095213;28;20070;-64
2021/03/17 00:46:32;;;;;;;4.67;2.30;;;5.20;99.90;;;;;;5113494;28;20087;-65
2021/03/17 00:48:57;;;;;;;5.73;2.20;;;5.20;99.90;;;;;;5113458;28;20098;-63
2021/03/17 00:51:23;;;;;;;2.80;2.30;;;5.10;99.90;;;;;;5095022;28;20567;-63
2021/03/17 00:53:49;;;;;;;2.93;2.13;;;5.10;99.90;;;;;;5113506;28;20028;-63
2021/03/17 00:56:15;;;;;;;4.35;2.38;;;5.20;99.90;;;;;;5095071;28;20072;-64
2021/03/17 00:58:41;;;;;;;3.13;2.37;;;5.00;99.90;;;;;;5117751;28;20107;-64
2021/03/17 01:01:06;;;;;;;2.73;2.17;;;4.90;99.90;;;;;;5119401;28;20078;-64
2021/03/17 01:03:32;;;;;;;2.60;2.23;;;4.90;99.90;;;;;;5099434;28;20401;-64
2021/03/17 01:05:57;;;;;;;4.17;2.40;;;4.80;99.90;;;;;;5117529;28;20027;-64
2021/03/17 01:08:23;;;;;;;2.97;2.50;;;4.90;99.90;;;;;;5117284;28;20028;-64
2021/03/17 01:10:49;;;;;;;3.17;2.53;;;5.00;99.90;;;;;;5099231;28;20384;-64
2021/03/17 01:13:15;;;;;;;3.38;2.78;;;5.00;99.90;;;;;;5117344;28;20067;-64
2021/03/17 01:15:43;;;;;;;2.80;2.30;;;5.00;99.90;;;;;;5117020;28;20039;-64
2021/03/17 01:18:09;;;;;;;2.75;2.28;;;5.00;99.90;;;;;;5116924;28;20433;-64
2021/03/17 01:20:35;;;;;;;4.45;2.88;;;5.00;99.90;;;;;;5116779;28;20039;-64
2021/03/17 01:23:01;;;;;;;3.03;2.60;;;4.80;99.90;;;;;;5117397;28;20391;-64
2021/03/17 01:25:31;;;;;;;3.72;2.70;;;4.80;99.90;;;;;;5098560;28;20490;-63
2021/03/17 01:27:58;;;;;;;4.78;3.15;;;4.80;99.90;;;;;;5116735;28;20079;-64
2021/03/17 01:30:29;;;;;;;4.38;2.72;;;4.80;99.90;;;;;;5116787;28;20023;-63
2021/03/17 01:32:54;;;;;;;3.55;3.08;;;4.80;99.90;;;;;;5098350;28;20024;-64
2021/03/17 01:35:20;;;;;;;3.50;2.73;;;4.80;99.90;;;;;;5116811;28;20022;-63
2021/03/17 01:37:46;;;;;;;3.63;2.78;;;4.90;99.90;;;;;;5098592;28;20027;-63
2021/03/17 01:40:13;;;;;;;3.57;3.10;;;5.00;99.90;;;;;;5116233;28;20035;-63
2021/03/17 01:42:40;;;;;;;3.72;3.33;;;5.00;99.90;;;;;;5116441;28;20304;-64
2021/03/17 01:45:12;;;;;;;4.18;3.28;;;5.00;99.90;;;;;;5116627;28;20027;-64
2021/03/17 01:47:38;;;;;;;4.05;3.20;;;4.90;99.90;;;;;;5116733;28;20107;-63
2021/03/17 01:50:13;;;;;;;5.38;3.50;;;4.80;99.90;;;;;;5097969;28;20016;-64
2021/03/17 01:52:38;;;;;;;4.28;3.47;;;4.80;99.90;;;;;;5116359;28;20024;-64
2021/03/17 01:55:06;;;;;;;4.63;3.50;;;4.80;99.90;;;;;;5116482;28;20024;-64
2021/03/17 01:57:33;;;;;;;4.22;3.38;;;4.80;99.90;;;;;;5097909;28;20024;-64
2021/03/17 01:59:59;;;;;;;3.92;3.30;;;4.80;99.90;;;;;;5097951;28;20024;-65
2021/03/17 02:02:25;;;;;;;3.90;3.05;;;4.80;99.90;;;;;;5116137;28;20083;-65
2021/03/17 02:04:51;;;;;;;5.23;3.67;;;4.70;99.90;;;;;;5116083;28;20034;-64
2021/03/17 02:07:16;;;;;;;4.50;3.23;;;4.70;99.90;;;;;;5116435;28;20083;-65
2021/03/17 02:09:42;;;;;;;5.23;3.87;;;4.90;99.90;;;;;;5115434;28;20051;-64
2021/03/17 02:12:36;;;;;;;6.72;3.35;;;4.90;99.90;;;;;;5116433;28;20521;-64
2021/03/17 02:15:41;;;;;;;4.38;3.65;;;4.80;99.90;;;;;;5116184;28;20145;-64
2021/03/17 02:18:37;;;;;;;5.30;3.45;;;4.80;99.90;;;;;;5070816;28;20502;-64
2021/03/17 02:21:31;;;;;;;5.20;3.75;;;4.90;99.90;;;;;;5097501;28;20494;-64
2021/03/17 02:24:08;;;;;;;4.55;3.47;;;4.80;99.90;;;;;;5097849;28;20384;-64
2021/03/17 02:26:48;;;;;;;4.80;3.53;;;4.80;99.90;;;;;;5115725;28;20019;-64
2021/03/17 02:29:53;;;;;;;6.43;3.80;;;4.80;99.90;;;;;;5097399;28;20023;-64
2021/03/17 02:32:34;;;;;;;5.22;3.50;;;4.80;99.90;;;;;;5115987;28;20040;-65
2021/03/17 02:35:03;;;;;;;5.22;3.75;;;4.80;99.90;;;;;;5115902;28;20095;-64
2021/03/17 02:37:32;;;;;;;5.78;4.03;;;4.70;99.90;;;;;;5115702;28;20027;-64
2021/03/17 02:40:22;;;;;;;4.93;3.80;;;4.80;99.90;;;;;;5115466;28;20023;-64
2021/03/17 02:43:22;;;;;;;6.05;4.28;;;4.80;99.90;;;;;;5115564;28;20450;-65
2021/03/17 02:45:55;;;;;;;4.85;3.78;;;4.70;99.90;;;;;;5097590;28;20121;-65
2021/03/17 02:48:25;;;;;;;5.18;3.53;;;4.60;99.90;;;;;;5096749;28;20024;-65
2021/03/17 02:50:54;;;;;;;5.13;3.45;;;4.60;99.90;;;;;;5096844;28;20102;-64
2021/03/17 02:53:24;;;;;;;5.00;4.15;;;4.70;99.90;;;;;;5097175;28;20388;-65
2021/03/17 02:55:59;;;;;;;5.43;3.75;;;4.70;99.90;;;;;;5114976;28;20384;-64
2021/03/17 02:58:26;;;;;;;4.93;3.97;;;4.70;99.90;;;;;;5115326;28;20024;-64
2021/03/17 03:00:53;;;;;;;4.55;3.20;;;4.80;99.90;;;;;;5114925;28;20053;-64
2021/03/17 03:03:20;;;;;;;6.30;3.33;;;4.80;99.90;;;;;;5115195;28;20380;-64
2021/03/17 03:05:47;;;;;;;4.38;3.25;;;4.80;99.90;;;;;;5114987;28;20028;-64
2021/03/17 03:08:14;;;;;;;3.88;2.78;;;4.70;99.90;;;;;;5114873;28;20073;-64
2021/03/17 03:10:40;;;;;;;;;;;4.70;99.90;;;;;;5115287;28;20020;-64
2021/03/17 03:13:07;;;;;;;3.70;2.90;;;4.70;99.90;;;;;;5096942;28;19952;-64
2021/03/17 03:15:35;;;;;;;3.70;2.90;;;4.70;99.90;;;;;;5097458;28;20057;-63
2021/03/17 03:18:04;;;;;;;4.18;2.95;;;4.70;99.90;;;;;;5115668;28;20164;-63
2021/03/17 03:20:32;;;;;;;4.75;3.05;;;4.80;99.90;;;;;;5113708;28;20024;-65
2021/03/17 03:22:58;;;;;;;4.72;3.08;;;4.80;99.90;;;;;;5114815;28;20020;-65
2021/03/17 03:25:25;;;;;;;;;;;4.70;99.90;;;;;;5115180;28;20108;-64
2021/03/17 03:27:53;;;;;;;5.45;3.13;;;4.70;99.90;;;;;;5096222;28;20280;-64
2021/03/17 03:30:29;;;;;;;4.30;3.10;;;4.60;99.90;;;;;;5114988;28;20034;-63
2021/03/17 03:32:55;;;;;;;5.10;3.33;;;4.60;99.90;;;;;;5114674;28;20012;-65
2021/03/17 03:35:22;;;;;;;3.97;2.97;;;4.60;99.90;;;;;;5114445;28;20023;-63
2021/03/17 03:37:48;;;;;;;3.78;3.10;;;4.70;99.90;;;;;;5114717;28;20030;-64
2021/03/17 03:40:17;;;;;;;5.20;3.45;;;4.70;99.90;;;;;;5114520;28;20032;-64
2021/03/17 03:42:43;;;;;;;4.72;3.65;;;4.70;99.90;;;;;;5114412;28;20038;-64
2021/03/17 03:45:14;;;;;;;4.82;4.13;;;4.70;99.90;;;;;;5114445;28;20028;-64
2021/03/17 03:47:41;;;;;;;3.92;3.38;;;4.70;99.90;;;;;;5095942;28;20031;-64
2021/03/17 03:50:08;;;;;;;;;;;4.70;99.90;;;;;;5114513;28;20023;-64
2021/03/17 03:52:45;;;;;;;4.88;3.58;;;4.70;99.90;;;;;;5114053;28;19915;-64
2021/03/17 03:55:19;;;;;;;7.10;4.28;;;4.70;99.90;;;;;;5114216;28;20054;-64
2021/03/17 03:57:48;;;;;;;5.00;3.95;;;4.70;99.90;;;;;;5116585;28;20024;-64
2021/03/17 04:00:21;;;;;;;5.47;4.10;;;4.70;99.90;;;;;;5115016;28;20031;-64
2021/03/17 04:02:50;;;;;;;6.18;4.25;;;4.70;99.90;;;;;;5115098;28;20036;-64
2021/03/17 04:05:20;;;;;;;7.25;5.00;;;4.70;99.90;;;;;;5115136;28;20463;-64
2021/03/17 04:07:48;;;;;;;7.30;4.30;;;4.70;99.90;;;;;;5114488;28;20020;-65
2021/03/17 04:10:16;;;;;;;7.20;4.80;;;4.70;99.90;;;;;;5114057;28;20111;-65
2021/03/17 04:12:43;;;;;;;8.77;4.97;;;4.70;99.90;;;;;;5114530;28;20012;-64
2021/03/17 04:15:13;;;;;;;6.25;4.80;;;4.70;99.90;;;;;;5114011;28;20101;-65
2021/03/17 04:18:02;;;;;;;8.15;5.75;;;4.70;99.90;;;;;;5114156;28;20058;-64
2021/03/17 04:20:31;;;;;;;7.85;4.70;;;4.80;99.90;;;;;;5118254;28;20157;-64
2021/03/17 04:22:57;;;;;;;6.50;4.70;;;4.80;99.90;;;;;;5114527;28;20072;-64
2021/03/17 04:25:24;;;;;;;;;;;4.70;99.90;;;;;;5114608;28;20024;-64
2021/03/17 04:27:52;;;;;;;7.40;5.50;;;4.70;99.90;;;;;;5114623;28;20006;-64
2021/03/17 04:30:20;;;;;;;6.00;4.18;;;4.70;99.90;;;;;;5114256;28;20024;-65
2021/03/17 04:32:47;;;;;;;7.35;4.32;;;4.70;99.90;;;;;;5100678;28;20395;-64
2021/03/17 04:35:15;;;;;;;6.10;4.55;;;4.70;99.90;;;;;;5121136;28;20472;-64
2021/03/17 04:37:44;;;;;;;6.18;4.70;;;4.70;99.90;;;;;;5124116;28;20117;-64
2021/03/17 04:40:12;;;;;;;7.55;4.75;;;4.70;99.90;;;;;;5105550;28;20034;-64
2021/03/17 04:42:43;;;;;;;8.95;5.22;;;4.70;99.90;;;;;;5123774;28;20024;-64
2021/03/17 04:45:11;;;;;;;7.75;5.10;;;4.70;99.90;;;;;;5102960;28;20102;-64
2021/03/17 04:47:44;;;;;;;5.65;4.35;;;4.70;99.90;;;;;;5120549;28;20039;-64
2021/03/17 04:50:18;;;;;;;6.93;4.32;;;4.60;99.90;;;;;;5120556;28;20024;-64
2021/03/17 04:52:44;;;;;;;6.40;4.72;;;4.60;99.90;;;;;;5121026;28;20023;-64
2021/03/17 04:55:13;;;;;;;9.57;5.82;;;4.60;99.90;;;;;;5120668;28;20019;-65
2021/03/17 04:57:40;;;;;;;6.82;4.72;;;4.60;99.90;;;;;;5120682;28;20058;-64
2021/03/17 05:00:15;;;;;;;7.30;5.40;;;4.70;99.90;;;;;;5102518;28;20050;-64
2021/03/17 05:02:47;;;;;;;8.80;5.60;;;4.70;99.90;;;;;;5102836;28;20047;-65
2021/03/17 05:05:13;;;;;;;7.30;5.15;;;4.70;99.90;;;;;;5121382;28;20059;-65
2021/03/17 05:07:40;;;;;;;9.32;5.72;;;4.70;99.90;;;;;;5120695;28;20024;-63
2021/03/17 05:10:08;;;;;;;7.05;5.60;;;4.70;99.90;;;;;;5102578;28;20106;-64
2021/03/17 05:12:37;;;;;;;7.63;5.55;;;4.70;99.90;;;;;;5103305;28;20027;-63
2021/03/17 05:15:04;;;;;;;9.60;6.78;;;4.70;99.90;;;;;;5120538;28;20020;-63
2021/03/17 05:17:33;;;;;;;9.57;6.65;;;4.70;99.90;;;;;;5120321;28;20062;-64
2021/03/17 05:19:59;;;;;;;8.80;6.35;;;4.70;99.90;;;;;;5102072;28;20115;-63
2021/03/17 05:22:26;;;;;;;11.70;7.27;;;4.70;99.90;;;;;;5120546;28;20055;-64
2021/03/17 05:24:52;;;;;;;8.52;6.53;;;4.70;99.90;;;;;;5120626;28;20310;-64
2021/03/17 05:27:25;;;;;;;8.85;6.78;;;4.80;99.90;;;;;;5101619;28;20043;-62
2021/03/17 05:29:52;;;;;;;7.93;6.15;;;4.70;99.90;;;;;;5121540;28;20387;-64
2021/03/17 05:32:18;;;;;;;9.18;6.75;;;4.90;99.90;;;;;;5120425;28;20031;-64
2021/03/17 05:34:57;;;;;;;11.10;7.00;;;4.90;99.90;;;;;;5120154;28;20016;-64
2021/03/17 05:37:24;;;;;;;10.85;7.15;;;4.80;99.90;;;;;;5120095;28;20028;-65
2021/03/17 05:39:50;;;;;;;10.13;7.82;;;4.80;99.90;;;;;;5119744;28;20024;-66
2021/03/17 05:42:16;;;;;;;10.75;7.60;;;4.80;99.90;;;;;;5101622;28;20395;-64
2021/03/17 05:44:42;;;;;;;10.17;7.37;;;4.80;99.90;;;;;;5097571;28;20039;-63
2021/03/17 05:47:10;;;;;;;13.85;8.10;;;4.80;99.90;;;;;;5098936;28;20023;-63
2021/03/17 05:49:39;;;;;;;12.25;8.82;;;4.70;99.90;;;;;;5116918;28;20019;-63
2021/03/17 05:52:09;;;;;;;13.70;8.73;;;4.70;99.90;;;;;;5116604;28;20384;-63
2021/03/17 05:54:35;;;;;;;16.08;9.10;;;4.70;99.90;;;;;;5116875;28;20511;-63
2021/03/17 05:57:01;;;;;;;;;;;4.70;99.90;;;;;;5117331;28;20023;-63
2021/03/17 05:59:28;;;;;;;12.32;8.82;;;4.60;99.90;;;;;;5116609;28;19914;-63
2021/03/17 06:01:55;;;;;;;13.60;9.75;;;4.60;99.90;;;;;;5098383;28;20080;-63
2021/03/17 06:04:21;;;;;;;12.43;9.63;;;4.70;99.90;;;;;;5098872;28;20354;-64
2021/03/17 06:06:50;;;;;;;12.47;9.50;;;4.60;99.90;;;;;;5116670;28;20080;-63
2021/03/17 06:09:20;;;;;;;14.85;9.70;;;4.70;99.90;;;;;;5116140;28;20098;-62
2021/03/17 06:11:49;;;;;;;13.23;9.48;;;4.60;99.90;;;;;;5098403;28;20484;-65
2021/03/17 06:14:18;;;;;;;13.25;9.95;;;4.60;99.90;;;;;;5116546;28;20472;-62
2021/03/17 06:16:45;;;;;;;13.63;10.07;;;4.70;99.90;;;;;;5097739;28;20024;-63
2021/03/17 06:19:14;;;;;;;15.80;10.70;;;4.70;99.90;;;;;;5116260;28;20118;-64
2021/03/17 06:21:41;;;;;;;13.68;9.30;;;4.70;99.90;;;;;;5116316;28;20020;-64
2021/03/17 06:24:07;;;;;;;10.68;8.73;;;4.90;99.90;;;;;;5116360;28;20043;-63
2021/03/17 06:26:38;;;;;;;13.20;9.95;;;5.00;99.90;;;;;;5116184;28;20598;-62
2021/03/17 06:29:04;;;;;;;13.32;9.45;;;5.00;99.90;;;;;;5116095;28;20039;-63
2021/03/17 06:31:30;;;;;;;18.13;12.73;;;5.00;99.90;;;;;;5116574;28;20376;-61
2021/03/17 06:33:56;;;;;;;;;;;4.90;99.90;;;;;;5115961;28;20261;-63
2021/03/17 06:36:25;;;;;;;18.10;10.48;;;4.90;99.90;;;;;;5097538;28;20375;-63
2021/03/17 06:39:03;;;;;;;18.17;10.88;;;4.90;99.90;;;;;;5116010;28;20538;-63
2021/03/17 06:41:45;;;;;;;17.65;10.75;;;4.90;99.90;;;;;;5115395;28;20038;-63
2021/03/17 06:44:11;;;;;;;18.65;10.57;;;4.90;99.90;;;;;;5115153;28;20024;-63
2021/03/17 06:46:37;;;;;;;16.98;10.30;;;4.90;99.90;;;;;;5115572;28;20511;-64
2021/03/17 06:49:04;;;;;;;19.73;10.97;;;4.90;99.90;;;;;;5115363;28;20027;-64
2021/03/17 06:51:31;;;;;;;18.17;10.65;;;4.90;99.90;;;;;;5115279;28;20080;-64
2021/03/17 06:54:03;;;;;;;19.55;11.88;;;5.00;99.90;;;;;;5116288;28;20076;-63
2021/03/17 06:56:33;;;;;;;17.95;11.15;;;5.00;99.90;;;;;;5118041;28;20421;-65
2021/03/17 06:59:00;;;;;;;20.15;11.57;;;5.00;99.90;;;;;;5125644;28;20016;-64
2021/03/17 07:01:28;;;;;;;;;;;5.10;99.90;;;;;;5100387;28;20100;-64
2021/03/17 07:03:56;;;;;;;18.77;11.07;;;5.10;99.90;;;;;;5114995;28;20399;-64
2021/03/17 07:06:23;;;;;;;18.35;11.20;;;5.10;99.90;;;;;;5096664;28;20390;-65
2021/03/17 07:08:49;;;;;;;18.98;11.20;;;5.10;99.90;;;;;;5114558;28;20028;-64
2021/03/17 07:11:28;;;;;;;19.80;12.27;;;5.20;99.90;;;;;;5096639;28;20023;-64
2021/03/17 07:14:00;;;;;;;20.50;11.45;;;5.20;99.90;;;;;;5096281;28;20391;-64
2021/03/17 07:16:37;;;;;;;20.35;10.77;;;5.20;99.90;;;;;;5114923;28;20031;-64
2021/03/17 07:19:05;;;;;;;23.13;12.07;;;5.20;99.90;;;;;;5116392;28;20383;-64
2021/03/17 07:21:39;;;;;;;20.80;12.07;;;5.20;99.90;;;;;;5120702;28;20022;-64
2021/03/17 07:24:09;;;;;;;25.70;13.15;;;5.20;99.90;;;;;;5100299;28;20480;-64
2021/03/17 07:26:39;;;;;;;22.10;12.50;;;5.10;99.90;;;;;;5098265;28;20385;-64
2021/03/17 07:29:12;;;;;;;24.08;13.57;;;5.20;99.90;;;;;;5114989;28;20412;-64
2021/03/17 07:31:44;;;;;;;25.05;12.65;;;5.20;99.90;;;;;;5096489;28;20077;-64
2021/03/17 07:34:10;;;;;;;37.42;21.52;;;5.20;99.90;;;;;;5096676;28;20103;-64
2021/03/17 07:36:37;;;;;;;24.63;12.73;;;5.30;99.90;;;;;;5114200;28;20429;-64
2021/03/17 07:39:07;;;;;;;28.17;15.02;;;5.30;99.90;;;;;;5113845;28;20503;-64
2021/03/17 07:41:34;;;;;;;28.17;15.23;;;5.40;99.90;;;;;;5114004;28;20019;-64
2021/03/17 07:44:03;;;;;;;33.85;18.58;;;5.40;99.90;;;;;;5114566;28;20035;-64
2021/03/17 07:46:30;;;;;;;29.90;16.48;;;5.40;99.90;;;;;;5114564;28;20084;-64
2021/03/17 07:48:57;;;;;;;27.42;15.07;;;5.40;99.90;;;;;;5114233;28;20049;-64
2021/03/17 07:51:23;;;;;;;;;;;5.40;99.90;;;;;;5114034;28;20047;-64
2021/03/17 07:53:52;;;;;;;24.95;14.63;;;5.50;99.90;;;;;;5095442;28;20368;-63
2021/03/17 07:56:23;;;;;;;29.25;15.63;;;5.50;99.90;;;;;;5095320;28;20023;-65
2021/03/17 07:58:51;;;;;;;30.02;15.30;;;5.60;99.90;;;;;;5113997;28;20027;-65
2021/03/17 08:01:22;;;;;;;31.40;14.75;;;5.70;99.90;;;;;;5094949;28;20525;-66
2021/03/17 08:03:50;;;;;;;26.20;14.15;;;5.80;99.90;;;;;;5095379;28;20165;-65
2021/03/17 08:06:20;;;;;;;25.88;14.85;;;5.90;99.90;;;;;;5113240;28;20027;-64
2021/03/17 08:08:47;;;;;;;27.25;15.30;;;6.10;99.90;;;;;;5113913;28;20448;-67
2021/03/17 08:11:20;;;;;;;27.17;15.50;;;6.20;99.90;;;;;;5114742;28;20019;-65
2021/03/17 08:13:49;;;;;;;27.38;15.15;;;6.40;99.90;;;;;;5113763;28;20098;-64
2021/03/17 08:16:32;;;;;;;27.70;14.88;;;6.50;99.90;;;;;;5113699;28;20019;-64
2021/03/17 08:18:58;;;;;;;23.83;13.93;;;6.50;99.90;;;;;;5115989;28;20476;-66
2021/03/17 08:21:44;;;;;;;26.25;15.32;;;6.50;99.90;;;;;;5097765;28;20031;-65
2021/03/17 08:24:10;;;;;;;24.17;14.48;;;6.50;99.90;;;;;;5100383;28;20080;-65
2021/03/17 08:26:36;;;;;;;27.92;15.15;;;6.50;99.90;;;;;;5115105;28;20038;-64
2021/03/17 08:29:02;;;;;;;26.90;14.27;;;6.60;99.90;;;;;;5115045;28;20107;-65
2021/03/17 08:31:36;;;;;;;27.63;16.13;;;6.60;99.90;;;;;;5115647;28;20050;-66
2021/03/17 08:34:22;;;;;;;27.40;15.30;;;6.70;99.90;;;;;;5102099;28;20265;-66
2021/03/17 08:36:52;;;;;;;23.55;14.30;;;6.80;99.90;;;;;;5100304;28;20030;-65
2021/03/17 08:39:30;;;;;;;26.42;13.93;;;6.80;99.90;;;;;;5100116;28;20027;-65
2021/03/17 08:41:57;;;;;;;26.60;14.77;;;6.90;99.90;;;;;;5100419;28;20380;-65
2021/03/17 08:44:30;;;;;;;26.45;14.95;;;7.00;99.90;;;;;;5117219;28;20085;-66
2021/03/17 08:47:11;;;;;;;29.92;17.25;;;7.10;99.90;;;;;;5099554;28;20084;-65
2021/03/17 08:49:37;;;;;;;33.58;15.90;;;7.20;99.90;;;;;;5101864;28;20051;-66
2021/03/17 08:52:05;;;;;;;25.23;14.63;;;7.50;99.90;;;;;;5101975;28;20020;-66
2021/03/17 08:54:33;;;;;;;25.60;15.95;;;7.70;99.90;;;;;;5103277;28;20032;-64
2021/03/17 08:57:01;;;;;;;22.15;14.05;;;8.00;99.90;;;;;;5101178;28;20084;-64
2021/03/17 08:59:39;;;;;;;24.25;14.13;;;8.00;99.90;;;;;;5117804;28;20019;-66
2021/03/17 09:02:15;;;;;;;23.92;13.88;;;8.00;99.90;;;;;;5117272;28;20034;-65
2021/03/17 09:04:51;;;;;;;26.17;13.60;;;8.00;99.90;;;;;;5116313;28;20039;-66
2021/03/17 09:07:18;;;;;;;24.58;14.60;;;8.10;99.90;;;;;;5117160;28;20549;-66
2021/03/17 09:09:45;;;;;;;22.98;13.60;;;8.10;99.90;;;;;;5116137;28;20026;-66
2021/03/17 09:12:10;;;;;;;25.90;15.18;;;8.00;99.90;;;;;;5116882;28;20031;-67
2021/03/17 09:14:38;;;;;;;44.43;22.43;;;8.00;99.90;;;;;;5118927;28;20020;-65
2021/03/17 09:17:11;;;;;;;27.10;15.18;;;8.00;99.90;;;;;;5097000;28;20019;-67
2021/03/17 09:20:08;;;;;;;24.45;15.07;;;8.10;99.90;;;;;;5117874;28;20394;-67
2021/03/17 09:22:40;;;;;;;27.38;15.32;;;8.40;99.90;;;;;;5101843;28;20388;-66
2021/03/17 09:25:38;;;;;;;23.95;13.30;;;8.30;99.90;;;;;;5119799;28;20015;-66
2021/03/17 09:28:10;;;;;;;26.55;13.32;;;8.40;99.90;;;;;;5120963;28;20024;-66
2021/03/17 09:30:56;;;;;;;24.88;14.68;;;8.30;99.90;;;;;;5103494;28;20062;-64
2021/03/17 09:33:32;;;;;;;24.85;14.25;;;8.00;99.90;;;;;;5103986;28;20472;-66
2021/03/17 09:36:00;;;;;;;25.80;13.75;;;7.90;99.90;;;;;;5121893;28;20549;-65
2021/03/17 09:38:32;;;;;;;22.60;13.40;;;7.80;99.90;;;;;;5102021;28;20105;-65
2021/03/17 09:41:07;;;;;;;23.10;13.55;;;7.60;99.90;;;;;;5102096;28;20026;-66
2021/03/17 09:43:32;;;;;;;20.73;12.70;;;7.50;99.90;;;;;;5121906;28;20024;-66
2021/03/17 09:45:59;;;;;;;21.10;11.90;;;7.30;99.90;;;;;;5102355;28;20020;-65
2021/03/17 09:48:26;;;;;;;22.20;12.07;;;7.30;99.90;;;;;;5119874;28;20053;-65
2021/03/17 09:50:57;;;;;;;19.67;11.43;;;7.40;99.90;;;;;;5119796;28;20024;-65
2021/03/17 09:53:24;;;;;;;21.45;11.55;;;7.40;99.90;;;;;;5102052;28;20098;-66
2021/03/17 09:55:50;;;;;;;23.52;12.13;;;7.40;99.90;;;;;;5120795;28;20015;-66
2021/03/17 09:58:15;;;;;;;22.73;11.23;;;7.40;99.90;;;;;;5101281;28;20024;-66
2021/03/17 10:00:41;;;;;;;23.47;10.93;;;7.40;99.90;;;;;;5119525;28;20422;-65
2021/03/17 10:03:12;;;;;;;18.25;10.35;;;8.50;99.90;;;;;;5119548;28;20035;-65
2021/03/17 10:05:39;;;;;;;15.10;9.32;;;10.10;99.90;;;;;;5101830;28;20123;-66
2021/03/17 10:08:05;;;;;;;;;;;11.10;99.90;;;;;;5102743;28;20026;-65
2021/03/17 10:10:30;;;;;;;12.93;9.20;;;11.80;99.90;;;;;;5121792;28;19910;-64
2021/03/17 10:12:56;;;;;;;10.33;7.57;;;13.90;99.30;;;;;;5121407;28;20024;-65
2021/03/17 10:15:23;;;;;;;14.57;8.20;;;15.80;90.10;;;;;;5101261;28;20273;-67
2021/03/17 10:17:50;;;;;;;12.63;8.23;;;16.20;76.10;;;;;;5100244;28;20019;-66
2021/03/17 10:20:22;;;;;;;14.43;8.32;;;15.40;80.40;;;;;;5098725;28;20025;-66
2021/03/17 10:22:50;;;;;;;11.25;8.05;;;15.10;81.20;;;;;;5099235;28;20392;-66
2021/03/17 10:25:24;;;;;;;12.02;8.75;;;14.10;88.70;;;;;;5118167;28;20032;-67
2021/03/17 10:28:09;;;;;;;12.57;8.43;;;13.30;92.50;;;;;;5100247;28;20118;-66
2021/03/17 10:31:01;;;;;;;11.65;8.00;;;12.60;92.90;;;;;;5099526;28;20043;-66
2021/03/17 10:33:26;;;;;;;12.50;8.35;;;12.00;95.30;;;;;;5115403;28;20023;-65
2021/03/17 10:35:53;;;;;;;12.05;8.32;;;11.80;97.70;;;;;;5118457;28;20077;-67
2021/03/17 10:38:18;;;;;;;14.02;7.82;;;11.20;98.10;;;;;;5118526;28;20054;-65
2021/03/17 10:40:44;;;;;;;15.00;8.87;;;10.60;99.40;;;;;;5118586;28;20028;-65
2021/03/17 10:43:14;;;;;;;13.00;8.47;;;10.30;99.90;;;;;;5102406;28;20125;-65
2021/03/17 10:45:48;;;;;;;10.65;7.63;;;10.30;99.90;;;;;;5118214;28;20034;-66
2021/03/17 10:48:16;;;;;;;12.23;7.43;;;10.20;99.90;;;;;;5122399;28;20051;-66
2021/03/17 10:50:43;;;;;;;10.85;6.85;;;10.10;99.90;;;;;;5121013;28;20047;-66
2021/03/17 10:53:37;;;;;;;12.23;6.45;;;10.30;99.90;;;;;;5120006;28;20068;-67
2021/03/17 10:56:03;;;;;;;9.27;5.70;;;11.20;99.90;;;;;;5118806;28;20410;-66
2021/03/17 10:58:31;;;;;;;9.27;6.03;;;11.40;96.50;;;;;;5102315;28;20106;-65
2021/03/17 11:00:59;;;;;;;7.97;5.05;;;11.10;98.40;;;;;;5102000;28;20521;-65
2021/03/17 11:03:28;;;;;;;8.50;4.93;;;11.00;98.80;;;;;;5103444;28;20027;-65
2021/03/17 11:06:17;;;;;;;12.45;6.20;;;10.90;97.50;;;;;;5101209;28;20483;-67
2021/03/17 11:08:45;;;;;;;8.45;5.45;;;10.60;99.30;;;;;;5102114;28;20027;-65
2021/03/17 11:11:12;;;;;;;9.60;6.10;;;10.20;99.90;;;;;;5120280;28;20043;-65
2021/03/17 11:13:46;;;;;;;10.32;6.45;;;9.70;99.90;;;;;;5102015;28;20031;-66
2021/03/17 11:16:13;;;;;;;10.23;6.32;;;9.40;99.90;;;;;;5103180;28;20020;-67
2021/03/17 11:18:44;;;;;;;10.48;5.43;;;9.10;99.90;;;;;;5122004;28;20138;-67
2021/03/17 11:21:28;;;;;;;12.63;7.28;;;8.90;99.90;;;;;;5102767;28;20043;-67
2021/03/17 11:23:59;;;;;;;10.35;5.95;;;8.60;99.90;;;;;;5119542;28;20028;-65
2021/03/17 11:26:36;;;;;;;13.25;6.97;;;8.50;99.90;;;;;;5120727;28;20016;-63
2021/03/17 11:29:30;;;;;;;10.95;7.05;;;8.30;99.90;;;;;;5123972;22;20024;-68
2021/03/17 11:32:06;;;;;;;14.32;7.45;;;7.90;99.90;;;;;;5092953;28;20093;-68
2021/03/17 11:34:32;;;;;;;10.48;6.32;;;7.70;99.90;;;;;;5094681;28;20017;-69
2021/03/17 11:36:58;;;;;;;10.07;5.70;;;7.70;99.90;;;;;;5094549;28;20024;-68
2021/03/17 11:39:23;;;;;;;14.43;6.13;;;7.60;99.90;;;;;;5093223;28;20167;-68
2021/03/17 11:41:49;;;;;;;12.90;6.77;;;7.60;99.90;;;;;;5093778;28;20765;-69
2021/03/17 11:44:18;;;;;;;16.33;7.20;;;7.40;99.90;;;;;;5095397;28;20348;-67
2021/03/17 11:46:44;;;;;;;9.48;5.60;;;7.10;99.90;;;;;;5094499;28;20055;-68
2021/03/17 11:49:11;;;;;;;10.60;6.15;;;6.80;99.90;;;;;;5095977;28;20024;-68
2021/03/17 11:51:36;;;;;;;8.05;5.13;;;6.70;99.90;;;;;;5096193;28;20149;-67
2021/03/17 11:54:02;;;;;;;8.13;5.20;;;6.50;99.90;;;;;;5093049;28;20074;-68
2021/03/17 11:56:27;;;;;;;6.70;4.80;;;6.30;99.90;;;;;;5094200;28;20044;-67
2021/03/17 11:58:53;;;;;;;7.30;4.23;;;6.30;99.90;;;;;;5092631;28;20487;-68
2021/03/17 12:01:19;;;;;;;7.77;4.87;;;6.30;99.90;;;;;;5094041;28;20032;-68
2021/03/17 12:03:45;;;;;;;6.97;5.13;;;6.40;99.90;;;;;;5093616;28;20032;-69
2021/03/17 12:06:10;;;;;;;9.80;5.28;;;6.40;99.90;;;;;;5092405;28;20134;-67
2021/03/17 12:08:37;;;;;;;6.80;4.70;;;6.60;99.90;;;;;;5092011;28;20354;-67
2021/03/17 12:11:03;;;;;;;8.95;4.65;;;6.80;99.90;;;;;;5094210;28;20016;-68
2021/03/17 12:13:30;;;;;;;8.13;4.90;;;7.10;99.90;;;;;;5093246;28;20131;-68
2021/03/17 12:15:56;;;;;;;6.63;4.47;;;7.30;99.90;;;;;;5091957;28;20388;-68
2021/03/17 12:18:22;;;;;;;6.95;4.93;;;7.60;99.90;;;;;;5092330;28;20036;-68
2021/03/17 12:20:48;;;;;;;11.23;5.47;;;7.90;99.90;;;;;;5091624;28;20031;-68
2021/03/17 12:23:16;;;;;;;10.35;5.55;;;8.00;99.90;;;;;;5093006;28;20492;-68
2021/03/17 12:25:42;;;;;;;6.18;4.57;;;8.20;99.90;;;;;;5093258;28;20060;-69
2021/03/17 12:28:08;;;;;;;6.47;5.10;;;8.40;99.90;;;;;;5091787;28;20101;-69
2021/03/17 12:30:34;;;;;;;5.45;4.18;;;8.60;99.90;;;;;;5091702;28;20040;-68
2021/03/17 12:33:00;;;;;;;7.10;4.88;;;8.70;99.90;;;;;;5093504;28;20020;-68
2021/03/17 12:35:27;;;;;;;8.77;5.13;;;8.90;99.90;;;;;;5093628;28;20441;-68
2021/03/17 12:37:54;;;;;;;7.50;4.72;;;9.00;99.90;;;;;;5093309;28;20023;-68
2021/03/17 12:40:22;;;;;;;5.38;3.35;;;8.90;99.90;;;;;;5092073;28;20024;-68
2021/03/17 12:42:48;;;;;;;6.05;3.72;;;8.70;99.90;;;;;;5092870;28;20055;-67
2021/03/17 12:45:16;;;;;;;4.47;2.30;;;8.50;99.90;;;;;;5093291;28;20020;-67
2021/03/17 12:47:42;;;;;;;3.58;2.13;;;8.20;99.90;;;;;;5091741;28;20481;-67
2021/03/17 12:50:10;;;;;;;3.85;2.00;;;7.70;99.90;;;;;;5091740;28;20032;-68
2021/03/17 12:52:36;;;;;;;2.35;1.80;;;7.40;99.90;;;;;;5093878;28;20072;-68
2021/03/17 12:55:03;;;;;;;2.80;2.13;;;7.40;99.90;;;;;;5097604;28;20012;-70
2021/03/17 12:57:30;;;;;;;13.15;7.57;;;7.30;99.90;;;;;;5097811;28;20441;-68
2021/03/17 12:59:57;;;;;;;3.05;2.00;;;7.40;99.90;;;;;;5096346;28;20075;-68
2021/03/17 13:02:23;;;;;;;3.45;2.40;;;7.40;99.90;;;;;;5097560;28;20031;-68